• Join FlightAware (Why Join?)
  • Login
  • US Flag 
03:26AM EDT


 

Airport Tracker/Info


-or-


 

Live Flight TrackerFlight Track Log ✈ N678MB ✈ 25-Apr-2013 ✈ KGAI - KHAO

Flight Track Log - Related Links

Times and Time Zones

All times are in EDT time to prevent confusion due to time zone crossing. See the N678MB flight status page for this flight to view local times or setup timezone preferences in your user account.

Time Position Orientation Groundspeed Altitude Reporting Facility
EDT Latitude Longitude Course Direction KTS MPH feet Rate Location/Type
07:23AM 39.2000 -77.2000 38° Northeast 152 175 2,700  Level Potomac TRACON
07:24AM 39.2333 -77.1667 38° Northeast 172 198 5,500 2,700 Climbing Potomac TRACON
07:25AM 39.2833 -77.1333 27° Northeast 191 220 8,100 2,460 Climbing Potomac TRACON
07:26AM 39.3167 -77.0833 49° Northeast 226 260 10,500 2,400 Climbing Potomac TRACON
07:27AM 39.2833 -77.0833 180° South 182 209 13,000 2,280 Climbing Potomac TRACON
07:29AM 39.2244 -77.1428 218° Southwest 122 140 18,200 2,040 Climbing Washington Center
07:30AM 39.1844 -77.1608 199° South 130 150 19,800 1,800 Climbing Washington Center
07:31AM 39.1406 -77.1758 195° South 151 174 21,800 1,560 Climbing Washington Center
07:32AM 39.1008 -77.1936 199° South 163 188 23,000 600 Climbing Washington Center
07:33AM 39.0853 -77.2631 254° West 156 180 23,000  Level Washington Center
07:34AM 39.0653 -77.3400 252° West 192 221 23,000  Level Washington Center
07:35AM 39.0475 -77.4197 254° West 223 257 23,100 1,380 Climbing Washington Center
07:36AM 39.0297 -77.4889 252° West 223 257 25,800 1,920 Climbing Washington Center
07:37AM 39.0286 -77.5556 245° Southwest 207 238 27,000 1,380 Climbing Washington Center
07:38AM 39.0336 -77.6358 275° West 200 230 28,600 1,500 Climbing Washington Center
07:39AM 39.0347 -77.6867 272° West 180 207 30,100 1,440 Climbing Washington Center
07:40AM 39.0378 -77.7536 273° West 180 207 31,500 1,380 Climbing Washington Center
07:41AM 39.0392 -77.8017 272° West 170 196 32,900 1,200 Climbing Washington Center
07:42AM 39.0422 -77.8606 274° West 159 183 34,000 540 Climbing Washington Center
07:43AM 39.0453 -77.9194 274° West 159 183 34,000  Level Washington Center
07:44AM 39.0481 -77.9892 273° West 171 197 34,000  Level Washington Center
07:45AM 39.0506 -78.0694 272° West 204 235 34,000  Level Washington Center
07:46AM 39.0531 -78.1497 272° West 223 257 34,000  Level Washington Center
07:47AM 39.0572 -78.2381 274° West 243 280 34,000  Level Washington Center
07:48AM 39.0617 -78.3292 274° West 249 287 34,000  Level Washington Center
07:49AM 39.0636 -78.4172 272° West 254 292 34,000  Level Washington Center
07:50AM 39.0678 -78.5058 273° West 254 292 34,000  Level Washington Center
07:51AM 39.0697 -78.5942 272° West 254 292 34,000  Level Washington Center
07:52AM 39.0739 -78.6825 274° West 254 292 34,000  Level Washington Center
07:53AM 39.0778 -78.7708 273° West 254 292 34,000  Level Washington Center
07:54AM 39.0794 -78.8619 271° West 254 292 34,000  Level Washington Center
07:55AM 39.0833 -78.9503 273° West 254 292 34,000  Level Washington Center
07:56AM 39.0869 -79.0414 273° West 254 292 34,000  Level Washington Center
07:57AM 39.0886 -79.1297 271° West 254 292 34,000  Level Washington Center
07:58AM 39.0922 -79.2208 273° West 254 292 34,000  Level Washington Center
07:59AM 39.0961 -79.2986 274° West 254 292 34,000  Level Washington Center
08:00AM 39.0994 -79.3897 273° West 254 292 34,000  Level Washington Center
08:01AM 39.1008 -79.4781 271° West 254 292 34,000  Level Washington Center
08:02AM 39.1042 -79.5664 273° West 254 292 34,000  Level Washington Center
08:03AM 39.1050 -79.6656 271° West 254 292 34,000  Level Washington Center
08:04AM 39.1081 -79.7567 273° West 254 292 34,000  Level Washington Center
08:05AM 39.1092 -79.8478 271° West 254 292 34,000  Level Washington Center
08:07AM 39.1106 -80.0158 271° West 248 285 34,000  Level Indianapolis Center
08:08AM 39.1125 -80.1108 272° West 248 285 34,000  Level Indianapolis Center
08:09AM 39.1144 -80.2003 272° West 249 287 34,000  Level Indianapolis Center
08:10AM 39.1158 -80.2878 271° West 246 283 34,000  Level Indianapolis Center
08:11AM 39.1175 -80.3767 271° West 248 285 34,000  Level Indianapolis Center
08:12AM 39.1192 -80.4661 271° West 249 287 34,000  Level Indianapolis Center
08:13AM 39.1200 -80.5533 271° West 247 284 34,000  Level Indianapolis Center
08:14AM 39.1219 -80.6406 272° West 245 282 34,000  Level Indianapolis Center
08:15AM 39.1239 -80.7300 272° West 248 285 34,000  Level Indianapolis Center
08:16AM 39.1256 -80.8358 271° West 248 285 34,000  Level Indianapolis Center
08:17AM 39.1272 -80.9247 271° West 249 287 34,000  Level Indianapolis Center
08:18AM 39.1281 -81.0133 271° West 250 288 34,000  Level Indianapolis Center
08:19AM 39.1306 -81.1025 272° West 249 287 34,000  Level Indianapolis Center
08:20AM 39.1375 -81.1922 276° West 251 289 34,000  Level Indianapolis Center
08:21AM 39.1453 -81.2819 276° West 252 290 34,000 -600 Level Indianapolis Center
08:23AM 39.1525 -81.3753 276° West 261 300 32,800 -1,260 Descending Indianapolis Center
08:24AM 39.1619 -81.4953 276° West 280 322 31,500 -1,380 Descending Indianapolis Center
08:25AM 39.1706 -81.5958 276° West 283 326 30,000 -1,500 Descending Indianapolis Center
08:26AM 39.1781 -81.6958 276° West 282 325 28,500 -1,500 Descending Indianapolis Center
08:27AM 39.1858 -81.8006 276° West 294 338 27,000 -1,500 Descending Indianapolis Center
08:28AM 39.1942 -81.9067 276° West 298 343 25,500 -1,440 Descending Indianapolis Center
08:29AM 39.2019 -82.0094 276° West 292 336 24,100 -780 Descending Indianapolis Center
08:30AM 39.2089 -82.1064 275° West 277 319 24,000 -420 Descending Indianapolis Center
08:31AM 39.2178 -82.2239 276° West 275 316 23,300 -840 Descending Indianapolis Center
08:32AM 39.2253 -82.3219 276° West 276 318 22,300 -1,020 Descending Indianapolis Center
08:33AM 39.2325 -82.4172 276° West 269 310 21,300 -720 Descending Indianapolis Center
08:34AM 39.2386 -82.5156 275° West 268 308 20,900 -960 Descending Indianapolis Center
08:35AM 39.2461 -82.6128 276° West 269 310 19,400 -1,500 Descending Indianapolis Center
08:36AM 39.2525 -82.7089 275° West 267 307 17,800 -1,380 Descending Indianapolis Center
08:37AM 39.2586 -82.8031 275° West 262 302 16,600 -1,320 Descending Indianapolis Center
08:38AM 39.2647 -82.8972 275° West 261 300 15,100 -1,500 Descending Indianapolis Center
08:39AM 39.2722 -82.9894 276° West 256 295 13,500 -1,620 Descending Indianapolis Center
08:40AM 39.2781 -83.0978 274° West 256 295 11,800 -1,560 Descending Indianapolis Center
08:41AM 39.2831 -83.1739 275° West 253 291 10,500 -1,500 Descending Indianapolis Center
08:42AM 39.2906 -83.2775 275° West 249 287 8,800 -1,200 Descending Indianapolis Center
08:43AM 39.2944 -83.3664 273° West 250 288 8,000 -480 Descending Indianapolis Center
08:44AM 39.2997 -83.4372 276° West 238 274 8,000 -480 Level Indianapolis Center
08:45AM 39.3061 -83.5397 275° West 240 276 7,000 -960 Descending Indianapolis Center
08:45AM 39.3075 -83.5622 275° West 242 278 6,600 -1,560 Descending Indianapolis Center
08:46AM 39.3122 -83.6272 275° West 242 278 5,400 -1,500 Descending Indianapolis Center
08:47AM 39.3161 -83.7006 274° West 238 274 4,200 -720 Descending Indianapolis Center
08:48AM 39.3222 -83.7964 275° West 236 272 4,000 -120 Descending Indianapolis Center
08:49AM 39.3272 -83.8808 274° West 234 269 4,000  Level Indianapolis Center
08:50AM 39.3325 -83.9661 275° West 234 269 4,000 -60 Level Indianapolis Center
08:51AM 39.3378 -84.0531 275° West 237 273 3,900 -60 Descending Indianapolis Center
08:52AM 39.3433 -84.1531 274° West 238 274 3,900 -540 Level Indianapolis Center
08:53AM 39.3481 -84.2392 274° West 238 274 2,800 -720 Descending Indianapolis Center
08:54AM 39.3536 -84.3183 275° West 230 265 2,500 -180 Descending Indianapolis Center
08:55AM 39.3589 -84.3906 275° West 215 247 2,500  Level Indianapolis Center
08:57AM 39.3500 -84.4799 270° West  Level FlightAware Approximate
09:04AM 39.3500 -84.5167 270° West  Level FlightAware Approximate
09:05AM 39.3638 -84.5219 270° West  Level Estimated
09:06AM 39.3638 -84.5219 270° West  Level Estimated
09:07AM 39.3638 -84.5219 270° West  Level Estimated